sensor_id;sensor_type;location;lat;lon;timestamp;pressure;altitude;pressure_sealevel;temperature;humidity
6030;BME280;3043;42.682;23.376;2023-02-19T00:01:13;95224.00;;;8.54;100.00
6030;BME280;3043;42.682;23.376;2023-02-19T00:03:39;95219.59;;;8.64;100.00
6030;BME280;3043;42.682;23.376;2023-02-19T00:06:07;95225.50;;;8.73;100.00
6030;BME280;3043;42.682;23.376;2023-02-19T00:08:33;95225.41;;;8.79;100.00
6030;BME280;3043;42.682;23.376;2023-02-19T00:11:04;95215.94;;;8.78;100.00
6030;BME280;3043;42.682;23.376;2023-02-19T00:13:30;95209.97;;;8.76;100.00
6030;BME280;3043;42.682;23.376;2023-02-19T00:15:56;95214.22;;;8.79;100.00
6030;BME280;3043;42.682;23.376;2023-02-19T00:18:24;95217.03;;;8.62;100.00
6030;BME280;3043;42.682;23.376;2023-02-19T00:20:50;95218.56;;;8.75;100.00
6030;BME280;3043;42.682;23.376;2023-02-19T00:23:15;95227.09;;;8.80;100.00
6030;BME280;3043;42.682;23.376;2023-02-19T00:25:41;95211.63;;;8.80;100.00
6030;BME280;3043;42.682;23.376;2023-02-19T00:28:06;95216.94;;;8.68;100.00
6030;BME280;3043;42.682;23.376;2023-02-19T00:30:31;95210.00;;;8.73;100.00
6030;BME280;3043;42.682;23.376;2023-02-19T00:32:57;95206.66;;;8.65;100.00
6030;BME280;3043;42.682;23.376;2023-02-19T00:35:22;95204.94;;;8.64;100.00
6030;BME280;3043;42.682;23.376;2023-02-19T00:37:48;95203.38;;;8.54;100.00
6030;BME280;3043;42.682;23.376;2023-02-19T00:40:13;95212.72;;;8.61;100.00
6030;BME280;3043;42.682;23.376;2023-02-19T00:42:38;95200.78;;;8.54;100.00
6030;BME280;3043;42.682;23.376;2023-02-19T00:45:04;95211.06;;;8.59;100.00
6030;BME280;3043;42.682;23.376;2023-02-19T00:47:29;95200.00;;;8.49;100.00
6030;BME280;3043;42.682;23.376;2023-02-19T00:49:55;95196.56;;;8.50;100.00
6030;BME280;3043;42.682;23.376;2023-02-19T00:52:20;95177.78;;;8.39;100.00
6030;BME280;3043;42.682;23.376;2023-02-19T00:54:46;95180.28;;;8.47;100.00
6030;BME280;3043;42.682;23.376;2023-02-19T00:57:11;95183.28;;;8.12;100.00
6030;BME280;3043;42.682;23.376;2023-02-19T00:59:36;95179.78;;;8.16;100.00
6030;BME280;3043;42.682;23.376;2023-02-19T01:02:02;95186.59;;;8.20;100.00
6030;BME280;3043;42.682;23.376;2023-02-19T01:04:28;95181.50;;;8.14;100.00
6030;BME280;3043;42.682;23.376;2023-02-19T01:06:53;95189.31;;;8.08;100.00
6030;BME280;3043;42.682;23.376;2023-02-19T01:09:18;95176.34;;;8.14;100.00
6030;BME280;3043;42.682;23.376;2023-02-19T01:11:44;95190.16;;;8.12;100.00
6030;BME280;3043;42.682;23.376;2023-02-19T01:14:10;95195.53;;;7.92;100.00
6030;BME280;3043;42.682;23.376;2023-02-19T01:16:35;95185.22;;;7.92;100.00
6030;BME280;3043;42.682;23.376;2023-02-19T01:19:01;95182.66;;;7.92;100.00
6030;BME280;3043;42.682;23.376;2023-02-19T01:21:28;95171.78;;;7.66;100.00
6030;BME280;3043;42.682;23.376;2023-02-19T01:23:54;95171.78;;;7.66;100.00
6030;BME280;3043;42.682;23.376;2023-02-19T01:26:22;95179.41;;;7.74;100.00
6030;BME280;3043;42.682;23.376;2023-02-19T01:28:49;95182.97;;;7.65;100.00
6030;BME280;3043;42.682;23.376;2023-02-19T01:31:18;95185.56;;;7.62;100.00
6030;BME280;3043;42.682;23.376;2023-02-19T01:33:55;95190.66;;;7.68;100.00
6030;BME280;3043;42.682;23.376;2023-02-19T01:36:21;95183.00;;;7.62;100.00
6030;BME280;3043;42.682;23.376;2023-02-19T01:38:47;95183.97;;;7.49;100.00
6030;BME280;3043;42.682;23.376;2023-02-19T01:41:15;95192.56;;;7.50;100.00
6030;BME280;3043;42.682;23.376;2023-02-19T01:46:43;95209.66;;;7.55;100.00
6030;BME280;3043;42.682;23.376;2023-02-19T01:49:20;95213.09;;;7.54;100.00
6030;BME280;3043;42.682;23.376;2023-02-19T01:51:50;95222.47;;;7.63;100.00
6030;BME280;3043;42.682;23.376;2023-02-19T01:54:19;95221.59;;;7.65;100.00
6030;BME280;3043;42.682;23.376;2023-02-19T01:56:47;95221.75;;;7.50;100.00
6030;BME280;3043;42.682;23.376;2023-02-19T01:59:15;95216.75;;;7.32;100.00
6030;BME280;3043;42.682;23.376;2023-02-19T02:01:41;95214.22;;;7.29;100.00
6030;BME280;3043;42.682;23.376;2023-02-19T02:04:07;95215.06;;;7.28;100.00
6030;BME280;3043;42.682;23.376;2023-02-19T02:06:50;95215.94;;;7.25;100.00
6030;BME280;3043;42.682;23.376;2023-02-19T02:09:22;95223.75;;;7.15;100.00
6030;BME280;3043;42.682;23.376;2023-02-19T02:12:08;95220.44;;;7.01;100.00
6030;BME280;3043;42.682;23.376;2023-02-19T02:14:36;95210.22;;;6.92;100.00
6030;BME280;3043;42.682;23.376;2023-02-19T02:17:09;95213.66;;;6.91;100.00
6030;BME280;3043;42.682;23.376;2023-02-19T02:22:30;95224.84;;;6.85;100.00
6030;BME280;3043;42.682;23.376;2023-02-19T02:30:59;95213.63;;;6.94;100.00
6030;BME280;3043;42.682;23.376;2023-02-19T02:34:03;95215.34;;;6.92;100.00
6030;BME280;3043;42.682;23.376;2023-02-19T02:36:32;95211.06;;;6.94;100.00
6030;BME280;3043;42.682;23.376;2023-02-19T02:39:01;95217.06;;;6.90;100.00
6030;BME280;3043;42.682;23.376;2023-02-19T02:41:29;95212.81;;;6.89;100.00
6030;BME280;3043;42.682;23.376;2023-02-19T02:43:56;95196.53;;;6.84;100.00
6030;BME280;3043;42.682;23.376;2023-02-19T02:46:27;95196.59;;;6.75;100.00
6030;BME280;3043;42.682;23.376;2023-02-19T02:49:00;95208.69;;;6.64;100.00
6030;BME280;3043;42.682;23.376;2023-02-19T02:56:46;95205.25;;;6.68;100.00
6030;BME280;3043;42.682;23.376;2023-02-19T02:59:14;95198.34;;;6.76;100.00
6030;BME280;3043;42.682;23.376;2023-02-19T03:01:50;95209.41;;;6.85;100.00
6030;BME280;3043;42.682;23.376;2023-02-19T03:07:45;95223.88;;;7.03;100.00
6030;BME280;3043;42.682;23.376;2023-02-19T03:10:25;95234.00;;;7.21;100.00
6030;BME280;3043;42.682;23.376;2023-02-19T03:12:54;95230.66;;;7.08;100.00
6030;BME280;3043;42.682;23.376;2023-02-19T03:16:01;95234.28;;;6.88;100.00
6030;BME280;3043;42.682;23.376;2023-02-19T03:18:52;95229.19;;;6.76;100.00
6030;BME280;3043;42.682;23.376;2023-02-19T03:21:38;95246.38;;;6.68;100.00
6030;BME280;3043;42.682;23.376;2023-02-19T03:24:06;95242.88;;;6.78;100.00
6030;BME280;3043;42.682;23.376;2023-02-19T03:26:52;95239.34;;;6.97;100.00
6030;BME280;3043;42.682;23.376;2023-02-19T03:29:23;95245.41;;;6.87;100.00
6030;BME280;3043;42.682;23.376;2023-02-19T03:31:56;95249.75;;;6.82;100.00
6030;BME280;3043;42.682;23.376;2023-02-19T03:34:36;95253.16;;;6.81;100.00
6030;BME280;3043;42.682;23.376;2023-02-19T03:37:10;95259.22;;;6.75;100.00
6030;BME280;3043;42.682;23.376;2023-02-19T03:39:37;95268.63;;;6.75;100.00
6030;BME280;3043;42.682;23.376;2023-02-19T03:42:28;95265.19;;;6.79;100.00
6030;BME280;3043;42.682;23.376;2023-02-19T03:49:55;95268.47;;;6.99;100.00
6030;BME280;3043;42.682;23.376;2023-02-19T03:55:23;95273.56;;;7.08;100.00
6030;BME280;3043;42.682;23.376;2023-02-19T03:58:32;95277.00;;;7.10;100.00
6030;BME280;3043;42.682;23.376;2023-02-19T04:01:06;95273.59;;;7.02;100.00
6030;BME280;3043;42.682;23.376;2023-02-19T04:06:04;95278.78;;;6.96;100.00
6030;BME280;3043;42.682;23.376;2023-02-19T04:08:34;95274.47;;;7.04;100.00
6030;BME280;3043;42.682;23.376;2023-02-19T04:11:01;95283.03;;;7.04;100.00
6030;BME280;3043;42.682;23.376;2023-02-19T04:13:34;95277.03;;;7.04;100.00
6030;BME280;3043;42.682;23.376;2023-02-19T04:16:06;95280.53;;;6.97;100.00
6030;BME280;3043;42.682;23.376;2023-02-19T04:18:37;95278.78;;;6.99;100.00
6030;BME280;3043;42.682;23.376;2023-02-19T04:21:05;95284.81;;;6.96;100.00
6030;BME280;3043;42.682;23.376;2023-02-19T04:23:37;95281.28;;;7.06;100.00
6030;BME280;3043;42.682;23.376;2023-02-19T04:26:05;95277.06;;;7.01;100.00
6030;BME280;3043;42.682;23.376;2023-02-19T04:28:32;95285.69;;;6.94;100.00
6030;BME280;3043;42.682;23.376;2023-02-19T04:30:58;95283.13;;;6.91;100.00
6030;BME280;3043;42.682;23.376;2023-02-19T04:33:23;95291.69;;;6.91;100.00
6030;BME280;3043;42.682;23.376;2023-02-19T04:35:49;95289.19;;;6.78;100.00
6030;BME280;3043;42.682;23.376;2023-02-19T04:38:14;95306.34;;;6.79;100.00
6030;BME280;3043;42.682;23.376;2023-02-19T04:40:40;95299.50;;;6.72;100.00
6030;BME280;3043;42.682;23.376;2023-02-19T04:43:05;95296.13;;;6.59;100.00
6030;BME280;3043;42.682;23.376;2023-02-19T04:45:30;95300.44;;;6.63;100.00
6030;BME280;3043;42.682;23.376;2023-02-19T04:47:57;95302.13;;;6.66;100.00
6030;BME280;3043;42.682;23.376;2023-02-19T04:50:23;95302.97;;;6.68;100.00
6030;BME280;3043;42.682;23.376;2023-02-19T04:52:48;95285.81;;;6.74;100.00
6030;BME280;3043;42.682;23.376;2023-02-19T04:55:14;95297.72;;;6.86;100.00
6030;BME280;3043;42.682;23.376;2023-02-19T04:57:39;95293.44;;;6.91;100.00
6030;BME280;3043;42.682;23.376;2023-02-19T05:00:05;95300.31;;;6.86;100.00
6030;BME280;3043;42.682;23.376;2023-02-19T05:02:32;95308.09;;;6.74;100.00
6030;BME280;3043;42.682;23.376;2023-02-19T05:04:58;95309.84;;;6.66;100.00
6030;BME280;3043;42.682;23.376;2023-02-19T05:07:23;95303.00;;;6.62;100.00
6030;BME280;3043;42.682;23.376;2023-02-19T05:09:49;95308.19;;;6.53;100.00
6030;BME280;3043;42.682;23.376;2023-02-19T05:12:14;95301.34;;;6.49;100.00
6030;BME280;3043;42.682;23.376;2023-02-19T05:14:39;95304.75;;;6.51;100.00
6030;BME280;3043;42.682;23.376;2023-02-19T05:17:05;95308.22;;;6.47;100.00
6030;BME280;3043;42.682;23.376;2023-02-19T05:19:30;95311.63;;;6.46;100.00
6030;BME280;3043;42.682;23.376;2023-02-19T05:21:56;95310.78;;;6.50;100.00
6030;BME280;3043;42.682;23.376;2023-02-19T05:24:21;95304.75;;;6.54;100.00
6030;BME280;3043;42.682;23.376;2023-02-19T05:26:48;95313.38;;;6.44;100.00
6030;BME280;3043;42.682;23.376;2023-02-19T05:29:14;95313.31;;;6.56;100.00
6030;BME280;3043;42.682;23.376;2023-02-19T05:31:39;95318.47;;;6.56;100.00
6030;BME280;3043;42.682;23.376;2023-02-19T05:34:05;95320.09;;;6.69;100.00
6030;BME280;3043;42.682;23.376;2023-02-19T05:36:30;95337.19;;;6.83;100.00
6030;BME280;3043;42.682;23.376;2023-02-19T05:38:56;95333.63;;;7.05;100.00
6030;BME280;3043;42.682;23.376;2023-02-19T05:41:24;95342.13;;;7.21;100.00
6030;BME280;3043;42.682;23.376;2023-02-19T05:43:50;95331.72;;;7.39;100.00
6030;BME280;3043;42.682;23.376;2023-02-19T05:46:19;95338.53;;;7.43;100.00
6030;BME280;3043;42.682;23.376;2023-02-19T05:48:46;95333.91;;;7.83;100.00
6030;BME280;3043;42.682;23.376;2023-02-19T05:51:14;95339.78;;;8.01;100.00
6030;BME280;3043;42.682;23.376;2023-02-19T05:53:40;95335.19;;;8.33;100.00
6030;BME280;3043;42.682;23.376;2023-02-19T05:58:50;95343.63;;;9.16;100.00
6030;BME280;3043;42.682;23.376;2023-02-19T06:01:17;95353.44;;;9.52;100.00
6030;BME280;3043;42.682;23.376;2023-02-19T06:03:43;95340.44;;;10.11;100.00
6030;BME280;3043;42.682;23.376;2023-02-19T06:06:12;95348.25;;;10.55;100.00
6030;BME280;3043;42.682;23.376;2023-02-19T06:08:37;95349.75;;;11.09;100.00
6030;BME280;3043;42.682;23.376;2023-02-19T06:11:03;95352.63;;;11.75;100.00
6030;BME280;3043;42.682;23.376;2023-02-19T06:13:28;95366.88;;;12.27;95.00
6030;BME280;3043;42.682;23.376;2023-02-19T06:15:54;95361.88;;;12.86;90.93
6030;BME280;3043;42.682;23.376;2023-02-19T06:18:20;95363.19;;;13.31;84.07
6030;BME280;3043;42.682;23.376;2023-02-19T06:20:45;95368.69;;;13.51;80.57
6030;BME280;3043;42.682;23.376;2023-02-19T06:23:11;95360.56;;;13.89;78.15
6030;BME280;3043;42.682;23.376;2023-02-19T06:25:36;95368.50;;;14.12;76.04
6030;BME280;3043;42.682;23.376;2023-02-19T06:28:02;95366.66;;;14.15;73.98
6030;BME280;3043;42.682;23.376;2023-02-19T06:30:27;95353.63;;;14.15;72.11
6030;BME280;3043;42.682;23.376;2023-02-19T06:32:53;95361.13;;;14.26;70.91
6030;BME280;3043;42.682;23.376;2023-02-19T06:35:19;95361.03;;;14.29;70.86
6030;BME280;3043;42.682;23.376;2023-02-19T06:37:48;95360.53;;;14.16;69.85
6030;BME280;3043;42.682;23.376;2023-02-19T06:40:14;95368.97;;;14.24;69.85
6030;BME280;3043;42.682;23.376;2023-02-19T06:42:40;95367.25;;;14.23;70.71
6030;BME280;3043;42.682;23.376;2023-02-19T06:45:05;95360.31;;;14.50;70.45
6030;BME280;3043;42.682;23.376;2023-02-19T06:47:31;95356.97;;;14.71;70.97
6030;BME280;3043;42.682;23.376;2023-02-19T06:49:58;95369.53;;;15.32;66.97
6030;BME280;3043;42.682;23.376;2023-02-19T06:52:24;95362.31;;;15.62;65.59
6030;BME280;3043;42.682;23.376;2023-02-19T06:54:49;95368.25;;;16.10;61.59
6030;BME280;3043;42.682;23.376;2023-02-19T06:57:15;95367.22;;;16.57;59.59
6030;BME280;3043;42.682;23.376;2023-02-19T06:59:41;95368.19;;;16.95;57.29
6030;BME280;3043;42.682;23.376;2023-02-19T07:02:08;95376.03;;;17.15;52.99
6030;BME280;3043;42.682;23.376;2023-02-19T07:04:34;95379.00;;;17.26;53.05
6030;BME280;3043;42.682;23.376;2023-02-19T07:06:59;95385.31;;;17.02;51.81
6030;BME280;3043;42.682;23.376;2023-02-19T07:09:25;95383.03;;;16.54;53.07
6030;BME280;3043;42.682;23.376;2023-02-19T07:11:52;95379.44;;;16.77;53.19
6030;BME280;3043;42.682;23.376;2023-02-19T07:14:18;95381.28;;;17.33;52.24
6030;BME280;3043;42.682;23.376;2023-02-19T07:16:45;95381.69;;;17.44;51.03
6030;BME280;3043;42.682;23.376;2023-02-19T07:19:11;95378.03;;;18.04;49.67
6030;BME280;3043;42.682;23.376;2023-02-19T07:21:37;95366.00;;;18.36;48.28
6030;BME280;3043;42.682;23.376;2023-02-19T07:24:04;95362.38;;;18.91;47.01
6030;BME280;3043;42.682;23.376;2023-02-19T07:26:29;95362.25;;;19.26;45.93
6030;BME280;3043;42.682;23.376;2023-02-19T07:28:55;95348.47;;;19.56;45.08
6030;BME280;3043;42.682;23.376;2023-02-19T07:31:22;95341.97;;;19.63;44.62
6030;BME280;3043;42.682;23.376;2023-02-19T07:33:49;95350.88;;;20.38;43.03
6030;BME280;3043;42.682;23.376;2023-02-19T07:36:15;95345.56;;;20.69;41.65
6030;BME280;3043;42.682;23.376;2023-02-19T07:38:42;95356.03;;;21.00;41.79
6030;BME280;3043;42.682;23.376;2023-02-19T07:41:07;95344.25;;;21.77;40.03
6030;BME280;3043;42.682;23.376;2023-02-19T07:43:34;95345.66;;;21.83;39.65
6030;BME280;3043;42.682;23.376;2023-02-19T07:46:09;95344.84;;;22.49;38.33
6030;BME280;3043;42.682;23.376;2023-02-19T07:48:36;95342.81;;;23.19;37.95
6030;BME280;3043;42.682;23.376;2023-02-19T07:51:03;95340.81;;;23.97;36.10
6030;BME280;3043;42.682;23.376;2023-02-19T07:53:30;95338.34;;;24.43;34.67
6030;BME280;3043;42.682;23.376;2023-02-19T07:56:04;95336.97;;;24.97;34.12
6030;BME280;3043;42.682;23.376;2023-02-19T07:58:30;95340.47;;;25.43;32.90
6030;BME280;3043;42.682;23.376;2023-02-19T08:00:56;95348.69;;;25.51;32.33
6030;BME280;3043;42.682;23.376;2023-02-19T08:03:22;95348.47;;;25.87;32.07
6030;BME280;3043;42.682;23.376;2023-02-19T08:05:48;95350.97;;;25.10;32.31
6030;BME280;3043;42.682;23.376;2023-02-19T08:08:16;95348.22;;;25.68;31.80
6030;BME280;3043;42.682;23.376;2023-02-19T08:10:42;95348.38;;;26.00;31.11
6030;BME280;3043;42.682;23.376;2023-02-19T08:13:27;95345.31;;;26.49;30.43
6030;BME280;3043;42.682;23.376;2023-02-19T08:18:26;95339.41;;;26.88;30.01
6030;BME280;3043;42.682;23.376;2023-02-19T08:20:53;95338.72;;;27.06;29.52
6030;BME280;3043;42.682;23.376;2023-02-19T08:23:18;95340.38;;;27.18;29.24
6030;BME280;3043;42.682;23.376;2023-02-19T08:25:45;95338.72;;;27.38;28.70
6030;BME280;3043;42.682;23.376;2023-02-19T08:28:11;95336.50;;;26.91;29.44
6030;BME280;3043;42.682;23.376;2023-02-19T08:30:38;95338.94;;;26.29;29.32
6030;BME280;3043;42.682;23.376;2023-02-19T08:33:05;95344.38;;;26.39;29.73
6030;BME280;3043;42.682;23.376;2023-02-19T08:35:31;95334.44;;;26.41;29.87
6030;BME280;3043;42.682;23.376;2023-02-19T08:37:57;95346.47;;;26.56;29.88
6030;BME280;3043;42.682;23.376;2023-02-19T08:40:24;95343.97;;;26.65;29.58
6030;BME280;3043;42.682;23.376;2023-02-19T08:42:50;95336.56;;;26.80;29.16
6030;BME280;3043;42.682;23.376;2023-02-19T08:45:15;95342.28;;;26.53;29.44
6030;BME280;3043;42.682;23.376;2023-02-19T08:47:41;95324.06;;;26.71;29.62
6030;BME280;3043;42.682;23.376;2023-02-19T08:50:07;95322.09;;;26.62;29.82
6030;BME280;3043;42.682;23.376;2023-02-19T08:52:33;95323.91;;;27.04;29.42
6030;BME280;3043;42.682;23.376;2023-02-19T08:54:59;95321.63;;;27.20;28.88
6030;BME280;3043;42.682;23.376;2023-02-19T08:57:25;95323.44;;;27.19;29.14
6030;BME280;3043;42.682;23.376;2023-02-19T08:59:52;95310.56;;;25.30;30.43
6030;BME280;3043;42.682;23.376;2023-02-19T09:02:17;95298.81;;;25.78;30.60
6030;BME280;3043;42.682;23.376;2023-02-19T09:04:43;95306.28;;;25.84;30.57
6030;BME280;3043;42.682;23.376;2023-02-19T09:07:09;95299.25;;;26.28;29.82
6030;BME280;3043;42.682;23.376;2023-02-19T09:09:36;95296.66;;;26.48;29.88
6030;BME280;3043;42.682;23.376;2023-02-19T09:12:07;95293.22;;;26.37;29.91
6030;BME280;3043;42.682;23.376;2023-02-19T09:14:33;95290.31;;;26.29;30.07
6030;BME280;3043;42.682;23.376;2023-02-19T09:17:02;95282.16;;;25.87;30.71
6030;BME280;3043;42.682;23.376;2023-02-19T09:19:28;95279.63;;;25.86;30.89
6030;BME280;3043;42.682;23.376;2023-02-19T09:21:54;95276.13;;;26.07;30.89
6030;BME280;3043;42.682;23.376;2023-02-19T09:24:20;95279.28;;;26.13;30.90
6030;BME280;3043;42.682;23.376;2023-02-19T09:26:53;95270.56;;;26.33;30.48
6030;BME280;3043;42.682;23.376;2023-02-19T09:29:20;95271.88;;;26.59;30.11
6030;BME280;3043;42.682;23.376;2023-02-19T09:31:46;95265.47;;;27.13;30.07
6030;BME280;3043;42.682;23.376;2023-02-19T09:34:11;95266.66;;;27.71;29.36
6030;BME280;3043;42.682;23.376;2023-02-19T09:36:37;95272.81;;;27.21;30.17
6030;BME280;3043;42.682;23.376;2023-02-19T09:39:04;95272.28;;;25.45;31.63
6030;BME280;3043;42.682;23.376;2023-02-19T09:44:02;95272.66;;;24.61;32.75
6030;BME280;3043;42.682;23.376;2023-02-19T09:46:41;95270.78;;;24.74;33.00
6030;BME280;3043;42.682;23.376;2023-02-19T09:49:19;95265.59;;;24.72;33.26
6030;BME280;3043;42.682;23.376;2023-02-19T09:51:51;95258.59;;;25.06;32.70
6030;BME280;3043;42.682;23.376;2023-02-19T09:54:23;95268.44;;;25.38;32.39
6030;BME280;3043;42.682;23.376;2023-02-19T09:56:50;95262.88;;;24.85;32.81
6030;BME280;3043;42.682;23.376;2023-02-19T09:59:28;95247.47;;;24.08;33.81
6030;BME280;3043;42.682;23.376;2023-02-19T10:02:22;95236.25;;;24.17;33.94
6030;BME280;3043;42.682;23.376;2023-02-19T10:04:49;95236.50;;;24.25;34.08
6030;BME280;3043;42.682;23.376;2023-02-19T10:07:23;95232.25;;;25.15;32.87
6030;BME280;3043;42.682;23.376;2023-02-19T10:09:59;95219.59;;;25.30;32.06
6030;BME280;3043;42.682;23.376;2023-02-19T10:12:31;95212.59;;;25.07;31.96
6030;BME280;3043;42.682;23.376;2023-02-19T10:15:04;95222.88;;;24.42;32.54
6030;BME280;3043;42.682;23.376;2023-02-19T10:17:33;95207.50;;;24.47;32.52
6030;BME280;3043;42.682;23.376;2023-02-19T10:20:00;95200.00;;;24.30;33.08
6030;BME280;3043;42.682;23.376;2023-02-19T10:22:29;95185.94;;;24.75;32.59
6030;BME280;3043;42.682;23.376;2023-02-19T10:24:56;95200.50;;;24.46;32.50
6030;BME280;3043;42.682;23.376;2023-02-19T10:27:33;95189.47;;;24.52;32.41
6030;BME280;3043;42.682;23.376;2023-02-19T10:29:59;95176.81;;;24.90;32.31
6030;BME280;3043;42.682;23.376;2023-02-19T10:32:26;95176.38;;;25.51;31.16
6030;BME280;3043;42.682;23.376;2023-02-19T10:37:35;95159.22;;;24.78;31.27
6030;BME280;3043;42.682;23.376;2023-02-19T10:40:14;95153.19;;;23.96;32.33
6030;BME280;3043;42.682;23.376;2023-02-19T10:42:45;95154.09;;;24.07;32.53
6030;BME280;3043;42.682;23.376;2023-02-19T10:45:18;95148.97;;;24.17;32.21
6030;BME280;3043;42.682;23.376;2023-02-19T10:47:46;95133.66;;;23.86;32.42
6030;BME280;3043;42.682;23.376;2023-02-19T10:50:32;95128.88;;;23.67;32.92
6030;BME280;3043;42.682;23.376;2023-02-19T10:52:59;95137.03;;;23.16;33.64
6030;BME280;3043;42.682;23.376;2023-02-19T10:55:34;95127.91;;;22.58;34.22
6030;BME280;3043;42.682;23.376;2023-02-19T10:58:24;95122.31;;;22.75;34.04
6030;BME280;3043;42.682;23.376;2023-02-19T11:01:28;95124.75;;;22.78;33.99
6030;BME280;3043;42.682;23.376;2023-02-19T11:04:16;95113.75;;;22.59;34.63
6030;BME280;3043;42.682;23.376;2023-02-19T11:06:42;95100.19;;;23.02;33.95
6030;BME280;3043;42.682;23.376;2023-02-19T11:09:43;95093.66;;;22.95;33.83
6030;BME280;3043;42.682;23.376;2023-02-19T11:12:11;95095.66;;;22.91;33.96
6030;BME280;3043;42.682;23.376;2023-02-19T11:14:41;95099.50;;;22.74;34.20
6030;BME280;3043;42.682;23.376;2023-02-19T11:17:28;95096.22;;;22.33;34.87
6030;BME280;3043;42.682;23.376;2023-02-19T11:20:01;95085.00;;;22.05;34.92
6030;BME280;3043;42.682;23.376;2023-02-19T11:22:33;95084.00;;;22.45;34.70
6030;BME280;3043;42.682;23.376;2023-02-19T11:27:35;95069.19;;;22.42;34.62
6030;BME280;3043;42.682;23.376;2023-02-19T11:35:38;95053.19;;;22.70;34.10
6030;BME280;3043;42.682;23.376;2023-02-19T11:38:07;95044.31;;;22.46;34.21
6030;BME280;3043;42.682;23.376;2023-02-19T11:40:39;95043.16;;;22.63;34.68
6030;BME280;3043;42.682;23.376;2023-02-19T11:45:57;95033.81;;;22.83;33.78
6030;BME280;3043;42.682;23.376;2023-02-19T11:48:31;95034.97;;;22.91;33.90
6030;BME280;3043;42.682;23.376;2023-02-19T11:54:38;95015.47;;;23.05;33.48
6030;BME280;3043;42.682;23.376;2023-02-19T11:57:55;95021.56;;;23.18;33.32
6030;BME280;3043;42.682;23.376;2023-02-19T12:28:24;94957.16;;;23.08;31.81
6030;BME280;3043;42.682;23.376;2023-02-19T12:41:22;94931.47;;;22.26;32.46
6030;BME280;3043;42.682;23.376;2023-02-19T12:43:57;94923.06;;;22.09;32.71
6030;BME280;3043;42.682;23.376;2023-02-19T12:46:31;94917.03;;;22.07;32.93
6030;BME280;3043;42.682;23.376;2023-02-19T12:51:58;94897.00;;;22.04;32.70
6030;BME280;3043;42.682;23.376;2023-02-19T12:54:45;94899.75;;;22.03;33.16
6030;BME280;3043;42.682;23.376;2023-02-19T12:57:35;94901.13;;;22.08;33.97
6030;BME280;3043;42.682;23.376;2023-02-19T13:03:21;94887.19;;;22.06;34.99
6030;BME280;3043;42.682;23.376;2023-02-19T13:06:09;94888.69;;;22.10;34.43
6030;BME280;3043;42.682;23.376;2023-02-19T13:09:06;94885.97;;;21.99;34.75
6030;BME280;3043;42.682;23.376;2023-02-19T13:14:00;94873.06;;;22.07;34.53
6030;BME280;3043;42.682;23.376;2023-02-19T13:16:28;94870.34;;;22.09;34.28
6030;BME280;3043;42.682;23.376;2023-02-19T13:19:00;94869.81;;;22.04;35.02
6030;BME280;3043;42.682;23.376;2023-02-19T13:21:34;94868.31;;;22.00;34.19
6030;BME280;3043;42.682;23.376;2023-02-19T13:24:39;94865.56;;;22.01;34.68
6030;BME280;3043;42.682;23.376;2023-02-19T13:30:37;94858.34;;;21.67;34.40
6030;BME280;3043;42.682;23.376;2023-02-19T13:33:21;94847.78;;;21.42;34.52
6030;BME280;3043;42.682;23.376;2023-02-19T13:38:19;94841.06;;;21.13;34.91
6030;BME280;3043;42.682;23.376;2023-02-19T13:40:53;94839.81;;;20.92;35.44
6030;BME280;3043;42.682;23.376;2023-02-19T13:46:02;94836.13;;;20.82;35.37
6030;BME280;3043;42.682;23.376;2023-02-19T14:04:40;94821.59;;;19.83;36.89
6030;BME280;3043;42.682;23.376;2023-02-19T14:14:45;94809.63;;;19.79;37.00
6030;BME280;3043;42.682;23.376;2023-02-19T14:19:50;94811.69;;;19.74;37.08
6030;BME280;3043;42.682;23.376;2023-02-19T14:27:56;94797.03;;;19.84;36.95
6030;BME280;3043;42.682;23.376;2023-02-19T14:30:24;94796.47;;;19.79;37.57
6030;BME280;3043;42.682;23.376;2023-02-19T14:32:51;94793.09;;;19.77;38.61
6030;BME280;3043;42.682;23.376;2023-02-19T14:35:25;94787.50;;;19.69;39.01
6030;BME280;3043;42.682;23.376;2023-02-19T14:37:55;94799.88;;;19.67;39.49
6030;BME280;3043;42.682;23.376;2023-02-19T14:40:36;94793.16;;;19.63;39.67
6030;BME280;3043;42.682;23.376;2023-02-19T14:43:03;94787.44;;;19.56;40.19
6030;BME280;3043;42.682;23.376;2023-02-19T14:45:40;94774.59;;;19.52;40.09
6030;BME280;3043;42.682;23.376;2023-02-19T14:48:16;94780.78;;;19.36;40.05
6030;BME280;3043;42.682;23.376;2023-02-19T14:50:46;94779.28;;;19.32;40.29
6030;BME280;3043;42.682;23.376;2023-02-19T14:53:14;94783.50;;;19.35;40.32
6030;BME280;3043;42.682;23.376;2023-02-19T14:55:41;94773.47;;;19.27;40.51
6030;BME280;3043;42.682;23.376;2023-02-19T14:58:31;94771.78;;;19.40;40.71
6030;BME280;3043;42.682;23.376;2023-02-19T15:00:57;94774.59;;;19.52;40.76
6030;BME280;3043;42.682;23.376;2023-02-19T15:05:59;94781.28;;;18.99;41.69
6030;BME280;3043;42.682;23.376;2023-02-19T15:08:32;94761.25;;;18.98;41.17
6030;BME280;3043;42.682;23.376;2023-02-19T15:11:00;94761.44;;;18.81;42.13
6030;BME280;3043;42.682;23.376;2023-02-19T15:13:27;94762.16;;;18.69;42.64
6030;BME280;3043;42.682;23.376;2023-02-19T15:15:54;94769.25;;;18.67;42.86
6030;BME280;3043;42.682;23.376;2023-02-19T15:18:22;94763.44;;;18.48;43.15
6030;BME280;3043;42.682;23.376;2023-02-19T15:20:48;94755.00;;;18.28;43.67
6030;BME280;3043;42.682;23.376;2023-02-19T15:23:21;94762.50;;;18.04;44.33
6030;BME280;3043;42.682;23.376;2023-02-19T15:25:48;94770.44;;;17.87;44.62
6030;BME280;3043;42.682;23.376;2023-02-19T15:33:24;94768.34;;;17.78;45.49
6030;BME280;3043;42.682;23.376;2023-02-19T15:35:55;94771.47;;;17.85;45.67
6030;BME280;3043;42.682;23.376;2023-02-19T15:38:22;94767.91;;;17.86;45.59
6030;BME280;3043;42.682;23.376;2023-02-19T15:40:48;94777.72;;;17.82;46.21
6030;BME280;3043;42.682;23.376;2023-02-19T15:45:49;94786.66;;;17.94;45.83
6030;BME280;3043;42.682;23.376;2023-02-19T15:48:19;94794.97;;;17.86;46.41
6030;BME280;3043;42.682;23.376;2023-02-19T15:50:51;94795.44;;;17.93;46.40
6030;BME280;3043;42.682;23.376;2023-02-19T15:53:21;94802.91;;;18.00;46.52
6030;BME280;3043;42.682;23.376;2023-02-19T16:01:00;94811.84;;;17.96;46.32
6030;BME280;3043;42.682;23.376;2023-02-19T16:03:29;94806.00;;;17.91;46.49